createdAt,value
2018-12-27T00:02:32.357Z,220.47
2018-12-27T00:05:11.599Z,220.60
2018-12-27T00:07:52.231Z,236.73
2018-12-27T00:10:31.973Z,216.80
2018-12-27T00:13:12.954Z,206.10
2018-12-27T00:15:53.773Z,215.50
2018-12-27T00:18:33.918Z,208.43
2018-12-27T00:21:13.308Z,204.03
2018-12-27T00:23:54.482Z,191.63
2018-12-27T00:26:35.215Z,202.73
2018-12-27T00:32:14.831Z,199.60
2018-12-27T00:34:55.111Z,200.53
2018-12-27T00:37:35.326Z,197.80
2018-12-27T00:40:15.761Z,199.43
2018-12-27T00:42:55.676Z,192.20
2018-12-27T00:45:35.002Z,206.30
2018-12-27T00:48:14.276Z,199.10
2018-12-27T00:50:54.356Z,207.60
2018-12-27T00:53:33.616Z,205.07
2018-12-27T00:56:13.625Z,196.70
2018-12-27T00:58:53.693Z,209.23
2018-12-27T01:01:33.823Z,201.03
2018-12-27T01:04:15.120Z,209.63
2018-12-27T01:06:54.998Z,192.40
2018-12-27T01:09:34.923Z,201.17
2018-12-27T01:12:14.751Z,193.93
2018-12-27T01:14:54.890Z,196.43
2018-12-27T01:17:35.814Z,197.73
2018-12-27T01:20:16.387Z,206.77
2018-12-27T01:22:56.471Z,197.80
2018-12-27T01:25:36.890Z,188.13
2018-12-27T01:28:16.909Z,192.20
2018-12-27T01:30:57.158Z,201.00
2018-12-27T01:33:37.040Z,196.00
2018-12-27T01:36:16.949Z,203.57
2018-12-27T01:38:56.967Z,196.00
2018-12-27T01:41:36.224Z,187.27
2018-12-27T01:44:16.238Z,185.90
2018-12-27T01:46:56.451Z,179.30
2018-12-27T01:49:36.485Z,196.07
2018-12-27T01:52:16.706Z,181.23
2018-12-27T01:54:56.699Z,183.07
2018-12-27T01:57:36.950Z,188.07
2018-12-27T02:00:17.207Z,180.20
2018-12-27T02:02:57.061Z,174.20
2018-12-27T02:05:37.171Z,165.97
2018-12-27T02:08:16.584Z,166.03
2018-12-27T02:10:55.918Z,160.60
2018-12-27T02:13:35.327Z,166.40
2018-12-27T02:16:15.392Z,158.37
2018-12-27T02:18:55.414Z,164.03
2018-12-27T02:21:35.640Z,173.63
2018-12-27T02:24:16.168Z,159.13
2018-12-27T02:26:56.103Z,152.77
2018-12-27T02:29:35.624Z,155.67
2018-12-27T02:32:15.861Z,153.77
2018-12-27T02:34:56.011Z,151.17
2018-12-27T02:37:36.028Z,159.43
2018-12-27T02:40:16.316Z,151.97
2018-12-27T02:42:56.378Z,148.53
2018-12-27T02:45:36.402Z,152.70
2018-12-27T02:48:16.653Z,163.20
2018-12-27T02:50:56.678Z,147.20
2018-12-27T02:53:36.678Z,155.40
2018-12-27T02:56:16.802Z,149.37
2018-12-27T02:58:57.050Z,152.70
2018-12-27T03:01:36.996Z,152.87
2018-12-27T03:04:17.116Z,153.67
2018-12-27T03:06:57.240Z,141.87
2018-12-27T03:09:37.197Z,145.40
2018-12-27T03:12:14.675Z,140.20
2018-12-27T03:15:00.968Z,143.80
2018-12-27T03:17:40.829Z,147.93
2018-12-27T03:20:20.807Z,141.57
2018-12-27T03:22:58.134Z,145.53
2018-12-27T03:25:38.081Z,141.43
2018-12-27T03:28:18.138Z,147.67
2018-12-27T03:30:57.537Z,141.13
2018-12-27T03:33:37.346Z,143.83
2018-12-27T03:36:16.683Z,142.97
2018-12-27T03:38:56.719Z,138.70
2018-12-27T03:41:36.532Z,140.17
2018-12-27T03:44:16.513Z,138.47
2018-12-27T03:46:56.574Z,140.93
2018-12-27T03:49:35.844Z,142.93
2018-12-27T03:52:15.897Z,139.67
2018-12-27T03:54:56.039Z,145.10
2018-12-27T03:57:36.036Z,138.83
2018-12-27T04:00:15.941Z,140.90
2018-12-27T04:02:56.166Z,139.40
2018-12-27T04:05:36.302Z,136.90
2018-12-27T04:08:16.454Z,136.97
2018-12-27T04:10:56.524Z,136.00
2018-12-27T04:13:36.488Z,139.70
2018-12-27T04:16:16.516Z,135.23
2018-12-27T04:18:55.831Z,135.30
2018-12-27T04:21:35.865Z,131.43
2018-12-27T04:24:17.372Z,133.27
2018-12-27T04:26:57.009Z,134.47
2018-12-27T04:29:37.148Z,131.87
2018-12-27T04:32:17.252Z,136.47
2018-12-27T04:34:57.814Z,135.47
2018-12-27T04:37:37.524Z,133.60
2018-12-27T04:40:17.791Z,134.73
2018-12-27T04:42:58.063Z,131.70
2018-12-27T04:45:37.801Z,131.43
2018-12-27T04:48:17.116Z,133.30
2018-12-27T04:50:57.471Z,130.80
2018-12-27T04:53:37.348Z,130.00
2018-12-27T04:56:17.092Z,134.03
2018-12-27T04:58:57.321Z,131.93
2018-12-27T05:01:37.428Z,134.37
2018-12-27T05:04:18.354Z,132.03
2018-12-27T05:06:58.499Z,128.27
2018-12-27T05:09:38.271Z,130.70
2018-12-27T05:12:18.416Z,132.30
2018-12-27T05:14:44.920Z,131.90
2018-12-27T05:17:11.319Z,131.13
2018-12-27T05:19:37.774Z,130.50
2018-12-27T05:22:04.185Z,129.10
2018-12-27T05:24:30.702Z,127.20
2018-12-27T05:26:57.181Z,127.77
2018-12-27T05:29:23.603Z,129.60
2018-12-27T05:31:51.695Z,127.47
2018-12-27T05:34:25.960Z,127.77
2018-12-27T05:36:46.483Z,128.67
2018-12-27T05:39:12.925Z,128.77
2018-12-27T05:41:39.374Z,128.07
2018-12-27T05:44:05.827Z,126.80
2018-12-27T05:46:32.551Z,127.90
2018-12-27T05:48:58.944Z,126.77
2018-12-27T05:51:25.758Z,127.33
2018-12-27T05:53:52.255Z,126.17
2018-12-27T05:56:18.690Z,130.90
2018-12-27T05:58:45.084Z,126.00
2018-12-27T06:01:11.533Z,131.80
2018-12-27T06:03:37.983Z,128.77
2018-12-27T06:06:04.420Z,130.70
2018-12-27T06:08:31.996Z,129.53
2018-12-27T06:10:58.727Z,133.97
2018-12-27T06:13:25.147Z,132.10
2018-12-27T06:15:51.873Z,131.97
2018-12-27T06:18:18.450Z,132.57
2018-12-27T06:20:46.818Z,133.07
2018-12-27T06:23:13.189Z,130.60
2018-12-27T06:25:40.180Z,135.00
2018-12-27T06:28:06.646Z,133.47
2018-12-27T06:30:33.038Z,139.90
2018-12-27T06:33:01.235Z,133.87
2018-12-27T06:35:27.649Z,133.73
2018-12-27T06:37:55.168Z,136.27
2018-12-27T06:40:22.955Z,135.07
2018-12-27T06:42:49.422Z,140.63
2018-12-27T06:45:15.846Z,137.10
2018-12-27T06:47:42.290Z,133.63
2018-12-27T06:50:10.025Z,134.00
2018-12-27T06:52:36.478Z,139.53
2018-12-27T06:55:05.874Z,134.13
2018-12-27T06:57:32.313Z,140.73
2018-12-27T06:59:58.730Z,134.80
2018-12-27T07:02:25.214Z,138.27
2018-12-27T07:04:51.602Z,134.57
2018-12-27T07:07:18.035Z,136.30
2018-12-27T07:09:44.477Z,137.67
2018-12-27T07:12:10.911Z,135.63
2018-12-27T07:14:37.369Z,137.37
2018-12-27T07:17:04.314Z,136.53
2018-12-27T07:19:30.719Z,145.13
2018-12-27T07:21:57.413Z,139.07
2018-12-27T07:24:25.842Z,140.00
2018-12-27T07:26:52.379Z,143.50
2018-12-27T07:29:18.759Z,134.13
2018-12-27T07:31:45.227Z,146.07
2018-12-27T07:34:11.696Z,134.10
2018-12-27T07:36:38.083Z,138.60
2018-12-27T07:39:05.190Z,150.00
2018-12-27T07:41:31.814Z,134.07
2018-12-27T07:43:58.280Z,134.33
2018-12-27T07:46:24.825Z,132.77
2018-12-27T07:48:51.463Z,136.50
2018-12-27T07:51:17.869Z,137.17
2018-12-27T07:53:44.265Z,134.07
2018-12-27T07:56:10.655Z,134.80
2018-12-27T07:58:37.195Z,137.27
2018-12-27T08:01:03.570Z,139.60
2018-12-27T08:03:29.997Z,137.60
2018-12-27T08:05:56.386Z,134.40
2018-12-27T08:08:29.032Z,141.47
2018-12-27T08:10:55.464Z,135.80
2018-12-27T08:13:21.965Z,139.53
2018-12-27T08:15:48.358Z,138.33
2018-12-27T08:18:14.840Z,137.63
2018-12-27T08:20:41.280Z,140.37
2018-12-27T08:23:07.673Z,138.40
2018-12-27T08:25:34.072Z,141.90
2018-12-27T08:28:00.500Z,139.83
2018-12-27T08:30:26.925Z,135.17
2018-12-27T08:32:53.347Z,136.23
2018-12-27T08:35:20.038Z,137.73
2018-12-27T08:37:46.730Z,136.70
2018-12-27T08:40:13.203Z,136.83
2018-12-27T08:42:39.618Z,136.40
2018-12-27T08:45:06.231Z,140.47
2018-12-27T08:47:32.958Z,138.07
2018-12-27T08:49:59.329Z,142.57
2018-12-27T08:52:25.706Z,136.70
2018-12-27T08:54:52.093Z,136.93
2018-12-27T08:57:18.501Z,141.50
2018-12-27T08:59:44.936Z,130.53
2018-12-27T09:02:11.300Z,138.80
2018-12-27T09:04:37.734Z,140.50
2018-12-27T09:07:04.288Z,137.50
2018-12-27T09:09:30.697Z,135.90
2018-12-27T09:11:57.095Z,145.47
2018-12-27T09:14:23.533Z,139.13
2018-12-27T09:16:49.956Z,139.23
2018-12-27T09:19:16.378Z,140.63
2018-12-27T09:21:42.767Z,137.13
2018-12-27T09:24:09.133Z,137.23
2018-12-27T09:26:35.550Z,137.43
2018-12-27T09:29:01.947Z,132.73
2018-12-27T09:31:28.328Z,134.77
2018-12-27T09:33:54.802Z,137.20
2018-12-27T09:36:22.232Z,135.90
2018-12-27T09:38:48.660Z,134.97
2018-12-27T09:41:15.370Z,133.43
2018-12-27T09:43:42.856Z,143.63
2018-12-27T09:46:09.325Z,129.93
2018-12-27T09:48:35.750Z,128.83
2018-12-27T09:51:02.299Z,130.87
2018-12-27T09:53:28.685Z,127.47
2018-12-27T09:55:55.165Z,130.27
2018-12-27T09:58:21.595Z,128.00
2018-12-27T10:00:47.995Z,128.33
2018-12-27T10:03:14.484Z,128.70
2018-12-27T10:05:40.964Z,133.70
2018-12-27T10:08:07.353Z,126.53
2018-12-27T10:10:33.779Z,125.30
2018-12-27T10:13:00.154Z,124.60
2018-12-27T10:15:26.594Z,123.37
2018-12-27T10:17:53.319Z,127.97
2018-12-27T10:20:19.713Z,122.60
2018-12-27T10:22:46.113Z,124.47
2018-12-27T10:25:12.518Z,123.47
2018-12-27T10:27:38.907Z,122.20
2018-12-27T10:30:06.511Z,126.30
2018-12-27T10:32:32.994Z,122.20
2018-12-27T10:34:59.374Z,124.27
2018-12-27T10:37:25.804Z,120.10
2018-12-27T10:39:52.270Z,121.70
2018-12-27T10:42:18.731Z,120.20
2018-12-27T10:44:45.160Z,118.90
2018-12-27T10:47:11.556Z,123.27
2018-12-27T10:49:37.941Z,118.90
2018-12-27T10:52:04.292Z,118.20
2018-12-27T10:54:30.640Z,118.47
2018-12-27T10:56:57.030Z,122.70
2018-12-27T10:59:23.383Z,119.87
2018-12-27T11:01:49.792Z,120.27
2018-12-27T11:04:16.167Z,119.70
2018-12-27T11:06:42.564Z,121.10
2018-12-27T11:09:08.957Z,115.23
2018-12-27T11:11:35.336Z,115.00
2018-12-27T11:14:01.728Z,117.80
2018-12-27T11:16:28.410Z,120.73
2018-12-27T11:18:54.842Z,120.20
2018-12-27T11:21:22.243Z,115.80
2018-12-27T11:23:48.682Z,115.20
2018-12-27T11:26:15.096Z,120.60
2018-12-27T11:28:41.660Z,113.57
2018-12-27T11:31:08.113Z,116.00
2018-12-27T11:33:34.582Z,113.47
2018-12-27T11:36:01.045Z,115.70
2018-12-27T11:38:27.464Z,116.90
2018-12-27T11:40:55.455Z,115.10
2018-12-27T11:43:21.917Z,119.10
2018-12-27T11:45:51.591Z,116.33
2018-12-27T11:48:21.241Z,114.97
2018-12-27T11:50:48.275Z,115.37
2018-12-27T11:53:14.787Z,117.97
2018-12-27T11:55:41.227Z,114.10
2018-12-27T11:58:07.833Z,114.83
2018-12-27T12:00:34.253Z,116.77
2018-12-27T12:03:00.796Z,115.70
2018-12-27T12:05:27.200Z,112.80
2018-12-27T12:07:53.690Z,114.20
2018-12-27T12:10:20.080Z,112.37
2018-12-27T12:12:46.612Z,116.13
2018-12-27T12:15:13.244Z,117.13
2018-12-27T12:17:39.672Z,114.77
2018-12-27T12:20:06.310Z,113.17
2018-12-27T12:22:32.730Z,112.77
2018-12-27T12:24:59.261Z,113.70
2018-12-27T12:27:25.849Z,115.37
2018-12-27T12:29:52.296Z,113.37
2018-12-27T12:32:19.737Z,112.40
2018-12-27T12:34:46.195Z,113.73
2018-12-27T12:37:14.203Z,113.60
2018-12-27T12:39:40.895Z,113.30
2018-12-27T12:42:07.491Z,112.40
2018-12-27T12:44:34.217Z,114.17
2018-12-27T12:47:00.749Z,112.90
2018-12-27T12:49:27.111Z,114.53
2018-12-27T12:51:53.559Z,113.20
2018-12-27T12:54:20.016Z,112.30
2018-12-27T12:56:46.482Z,113.70
2018-12-27T12:59:12.923Z,112.27
2018-12-27T13:01:39.423Z,114.07
2018-12-27T13:04:05.912Z,111.27
2018-12-27T13:06:32.374Z,112.00
2018-12-27T13:08:59.572Z,115.90
2018-12-27T13:11:26.001Z,113.10
2018-12-27T13:13:52.481Z,115.40
2018-12-27T13:16:19.006Z,111.73
2018-12-27T13:18:47.376Z,114.20
2018-12-27T13:21:13.793Z,115.87
2018-12-27T13:23:40.270Z,113.47
2018-12-27T13:26:06.712Z,115.07
2018-12-27T13:28:33.234Z,111.87
2018-12-27T13:30:59.751Z,114.87
2018-12-27T13:33:26.407Z,114.77
2018-12-27T13:35:53.475Z,114.20
2018-12-27T13:38:20.087Z,116.27
2018-12-27T13:40:47.479Z,112.87
2018-12-27T13:43:14.129Z,114.20
2018-12-27T13:45:40.948Z,113.20
2018-12-27T13:48:07.502Z,121.73
2018-12-27T13:50:34.010Z,113.87
2018-12-27T13:53:00.515Z,114.37
2018-12-27T13:55:27.033Z,124.00
2018-12-27T13:57:53.470Z,114.30
2018-12-27T14:00:19.883Z,115.00
2018-12-27T14:02:47.615Z,115.07
2018-12-27T14:05:14.682Z,115.33
2018-12-27T14:07:41.085Z,114.97
2018-12-27T14:10:07.507Z,116.10
2018-12-27T14:12:34.410Z,116.20
2018-12-27T14:15:00.853Z,115.00
2018-12-27T14:17:27.246Z,115.17
2018-12-27T14:19:53.715Z,115.27
2018-12-27T14:22:20.305Z,118.00
2018-12-27T14:24:46.786Z,112.57
2018-12-27T14:27:14.059Z,115.73
2018-12-27T14:29:40.507Z,117.97
2018-12-27T14:32:07.013Z,116.33
2018-12-27T14:34:33.468Z,115.50
2018-12-27T14:36:59.935Z,113.87
2018-12-27T14:39:27.333Z,117.97
2018-12-27T14:41:53.727Z,117.60
2018-12-27T14:44:20.144Z,119.20
2018-12-27T14:46:46.527Z,120.20
2018-12-27T14:49:12.924Z,119.33
2018-12-27T14:51:39.448Z,116.70
2018-12-27T14:54:05.898Z,115.80
2018-12-27T14:56:32.343Z,117.30
2018-12-27T14:58:58.733Z,118.27
2018-12-27T15:01:25.122Z,125.20
2018-12-27T15:03:51.523Z,117.80
2018-12-27T15:06:17.920Z,121.17
2018-12-27T15:08:44.347Z,119.37
2018-12-27T15:11:10.720Z,118.60
2018-12-27T15:13:37.124Z,119.10
2018-12-27T15:16:03.522Z,120.10
2018-12-27T15:18:29.965Z,120.30
2018-12-27T15:20:56.383Z,119.60
2018-12-27T15:23:22.775Z,121.00
2018-12-27T15:25:49.249Z,126.63
2018-12-27T15:28:15.627Z,119.87
2018-12-27T15:30:42.065Z,119.17
2018-12-27T15:33:08.464Z,119.53
2018-12-27T15:35:34.844Z,128.90
2018-12-27T15:38:01.305Z,122.47
2018-12-27T15:40:27.682Z,121.40
2018-12-27T15:42:54.096Z,120.20
2018-12-27T15:45:20.569Z,116.77
2018-12-27T15:47:46.941Z,116.57
2018-12-27T15:50:13.363Z,118.47
2018-12-27T15:52:39.754Z,116.80
2018-12-27T15:55:06.145Z,119.80
2018-12-27T15:57:32.574Z,122.20
2018-12-27T15:59:58.972Z,114.13
2018-12-27T16:02:25.404Z,118.37
2018-12-27T16:04:51.802Z,120.37
2018-12-27T16:07:18.176Z,120.70
2018-12-27T16:09:44.617Z,117.43
2018-12-27T16:12:11.117Z,118.00
2018-12-27T16:14:39.831Z,118.67
2018-12-27T16:17:05.829Z,118.93
2018-12-27T16:19:32.284Z,120.13
2018-12-27T16:21:58.678Z,119.23
2018-12-27T16:24:25.070Z,118.67
2018-12-27T16:26:51.751Z,118.67
2018-12-27T16:29:19.154Z,119.33
2018-12-27T16:31:45.549Z,118.27
2018-12-27T16:34:12.304Z,118.80
2018-12-27T16:36:38.690Z,117.07
2018-12-27T16:39:05.590Z,116.27
2018-12-27T16:41:32.212Z,115.47
2018-12-27T16:43:58.871Z,118.80
2018-12-27T16:46:25.312Z,118.77
2018-12-27T16:48:51.680Z,116.00
2018-12-27T16:51:18.095Z,119.63
2018-12-27T16:53:44.514Z,115.03
2018-12-27T16:56:10.934Z,115.67
2018-12-27T16:58:37.327Z,117.40
2018-12-27T17:01:03.712Z,118.87
2018-12-27T17:03:30.133Z,121.10
2018-12-27T17:05:56.586Z,114.80
2018-12-27T17:08:22.967Z,117.70
2018-12-27T17:10:49.382Z,114.50
2018-12-27T17:13:15.773Z,117.07
2018-12-27T17:15:42.267Z,119.70
2018-12-27T17:18:09.648Z,120.03
2018-12-27T17:20:36.098Z,118.37
2018-12-27T17:23:02.464Z,119.37
2018-12-27T17:25:28.898Z,118.60
2018-12-27T17:27:55.286Z,118.03
2018-12-27T17:30:21.685Z,116.67
2018-12-27T17:32:48.130Z,121.07
2018-12-27T17:35:14.534Z,122.17
2018-12-27T17:37:40.928Z,117.57
2018-12-27T17:40:07.597Z,116.53
2018-12-27T17:42:34.251Z,118.83
2018-12-27T17:45:00.644Z,123.40
2018-12-27T17:47:27.030Z,124.00
2018-12-27T17:49:53.418Z,117.30
2018-12-27T17:52:19.874Z,120.90
2018-12-27T17:54:46.258Z,119.07
2018-12-27T17:57:12.652Z,116.63
2018-12-27T17:59:39.199Z,119.43
2018-12-27T18:02:05.591Z,118.47
2018-12-27T18:04:31.980Z,120.03
2018-12-27T18:06:58.386Z,120.60
2018-12-27T18:09:24.838Z,116.87
2018-12-27T18:11:51.212Z,117.50
2018-12-27T18:14:17.601Z,121.10
2018-12-27T18:16:44.270Z,116.80
2018-12-27T18:19:10.691Z,118.23
2018-12-27T18:21:37.093Z,116.90
2018-12-27T18:24:03.927Z,115.67
2018-12-27T18:26:30.347Z,122.70
2018-12-27T18:28:56.970Z,116.50
2018-12-27T18:31:23.456Z,116.43
2018-12-27T18:33:50.096Z,118.30
2018-12-27T18:36:16.517Z,116.80
2018-12-27T18:38:42.890Z,117.20
2018-12-27T18:41:09.283Z,117.03
2018-12-27T18:43:35.711Z,118.37
2018-12-27T18:46:02.237Z,118.40
2018-12-27T18:48:28.742Z,117.80
2018-12-27T18:50:55.143Z,114.80
2018-12-27T18:53:21.504Z,118.67
2018-12-27T18:55:48.149Z,114.47
2018-12-27T18:58:14.687Z,113.60
2018-12-27T19:00:41.141Z,113.80
2018-12-27T19:03:07.615Z,112.70
2018-12-27T19:05:34.022Z,114.10
2018-12-27T19:08:00.415Z,115.20
2018-12-27T19:10:26.909Z,114.17
2018-12-27T19:13:04.204Z,115.90
2018-12-27T19:15:33.588Z,112.27
2018-12-27T19:18:00.317Z,114.20
2018-12-27T19:20:26.927Z,112.57
2018-12-27T19:22:57.178Z,115.17
2018-12-27T19:25:23.602Z,113.80
2018-12-27T19:27:50.441Z,114.47
2018-12-27T19:30:16.963Z,115.43
2018-12-27T19:32:43.433Z,115.40
2018-12-27T19:35:10.136Z,115.70
2018-12-27T19:37:36.572Z,112.07
2018-12-27T19:40:04.245Z,113.77
2018-12-27T19:42:30.706Z,115.27
2018-12-27T19:44:57.227Z,116.20
2018-12-27T19:47:23.909Z,114.53
2018-12-27T19:49:50.542Z,116.90
2018-12-27T19:52:17.186Z,119.37
2018-12-27T19:54:43.564Z,116.50
2018-12-27T19:57:10.082Z,115.60
2018-12-27T19:59:36.487Z,116.07
2018-12-27T20:02:03.055Z,115.47
2018-12-27T20:04:29.697Z,118.33
2018-12-27T20:06:56.150Z,115.40
2018-12-27T20:09:22.937Z,118.30
2018-12-27T20:11:49.557Z,115.10
2018-12-27T20:14:15.846Z,116.60
2018-12-27T20:16:42.280Z,119.10
2018-12-27T20:19:08.765Z,119.30
2018-12-27T20:21:35.395Z,119.40
2018-12-27T20:24:02.070Z,117.83
2018-12-27T20:26:28.663Z,119.30
2018-12-27T20:28:55.174Z,116.53
2018-12-27T20:31:21.708Z,117.90
2018-12-27T20:33:48.625Z,116.10
2018-12-27T20:36:17.566Z,119.00
2018-12-27T20:38:43.975Z,119.67
2018-12-27T20:41:10.433Z,118.80
2018-12-27T20:43:36.917Z,119.07
2018-12-27T20:46:03.392Z,119.07
2018-12-27T20:48:30.078Z,120.47
2018-12-27T20:50:56.690Z,117.10
2018-12-27T20:53:23.179Z,120.93
2018-12-27T20:55:49.730Z,125.60
2018-12-27T20:58:16.271Z,119.97
2018-12-27T21:00:43.116Z,121.67
2018-12-27T21:03:09.529Z,120.30
2018-12-27T21:05:36.183Z,121.77
2018-12-27T21:08:02.618Z,122.43
2018-12-27T21:10:29.255Z,119.67
2018-12-27T21:12:55.713Z,122.73
2018-12-27T21:15:22.553Z,125.97
2018-12-27T21:17:48.939Z,123.67
2018-12-27T21:20:15.507Z,124.00
2018-12-27T21:22:41.888Z,124.67
2018-12-27T21:25:08.418Z,121.53
2018-12-27T21:27:34.875Z,124.63
2018-12-27T21:30:01.466Z,126.20
2018-12-27T21:32:27.932Z,125.37
2018-12-27T21:34:54.271Z,126.93
2018-12-27T21:37:20.821Z,125.73
2018-12-27T21:39:47.242Z,126.83
2018-12-27T21:42:13.636Z,126.37
2018-12-27T21:44:40.390Z,128.73
2018-12-27T21:47:06.979Z,125.53
2018-12-27T21:49:33.421Z,126.63
2018-12-27T21:52:00.171Z,127.57
2018-12-27T21:54:26.650Z,126.27
2018-12-27T21:56:53.105Z,130.63
2018-12-27T21:59:19.518Z,126.10
2018-12-27T22:01:45.953Z,131.47
2018-12-27T22:04:12.293Z,128.90
2018-12-27T22:06:38.979Z,134.77
2018-12-27T22:09:05.669Z,127.97
2018-12-27T22:11:32.093Z,128.47
2018-12-27T22:13:58.533Z,132.90
2018-12-27T22:16:24.938Z,130.23
2018-12-27T22:18:51.333Z,129.07
2018-12-27T22:21:17.870Z,132.07
2018-12-27T22:23:44.276Z,127.70
2018-12-27T22:26:10.949Z,131.83
2018-12-27T22:28:37.455Z,133.27
2018-12-27T22:31:03.964Z,130.00
2018-12-27T22:33:30.445Z,129.10
2018-12-27T22:35:56.885Z,132.87
2018-12-27T22:38:23.644Z,134.17
2018-12-27T22:40:50.169Z,130.67
2018-12-27T22:43:16.707Z,131.47
2018-12-27T22:45:43.128Z,132.37
2018-12-27T22:48:09.550Z,140.27
2018-12-27T22:50:36.264Z,131.83
2018-12-27T22:53:02.729Z,137.17
2018-12-27T22:55:30.181Z,129.80
2018-12-27T22:57:56.614Z,133.93
2018-12-27T23:00:25.592Z,130.57
2018-12-27T23:02:53.211Z,131.23
2018-12-27T23:05:19.692Z,136.33
2018-12-27T23:07:46.140Z,132.57
2018-12-27T23:10:12.636Z,132.00
2018-12-27T23:12:38.995Z,132.90
2018-12-27T23:15:05.479Z,129.73
2018-12-27T23:17:32.050Z,132.50
2018-12-27T23:19:58.543Z,132.53
2018-12-27T23:22:25.052Z,128.47
2018-12-27T23:24:51.516Z,135.87
2018-12-27T23:27:18.074Z,130.73
2018-12-27T23:29:45.569Z,131.97
2018-12-27T23:32:13.514Z,131.73
2018-12-27T23:34:40.346Z,137.10
2018-12-27T23:37:06.818Z,133.17
2018-12-27T23:39:33.522Z,136.57
2018-12-27T23:41:59.885Z,136.63
2018-12-27T23:44:26.318Z,132.57
2018-12-27T23:46:52.746Z,136.07
2018-12-27T23:49:19.169Z,129.87
2018-12-27T23:51:45.633Z,135.80
2018-12-27T23:54:12.298Z,133.23
2018-12-27T23:56:38.798Z,134.07
2018-12-27T23:59:06.586Z,137.23
